sensor_id;sensor_type;location;lat;lon;timestamp;pressure;altitude;pressure_sealevel;temperature;humidity
80164;BME280;69489;55.130;61.268;2023-04-25T00:00:50;99132.47;;;16.08;26.21
80164;BME280;69489;55.130;61.268;2023-04-25T00:03:17;99129.66;;;15.96;26.31
80164;BME280;69489;55.130;61.268;2023-04-25T00:05:44;99128.88;;;15.89;26.38
80164;BME280;69489;55.130;61.268;2023-04-25T00:08:11;99139.78;;;15.94;26.50
80164;BME280;69489;55.130;61.268;2023-04-25T00:10:36;99135.09;;;15.83;26.33
80164;BME280;69489;55.130;61.268;2023-04-25T00:13:02;99140.44;;;15.83;26.69
80164;BME280;69489;55.130;61.268;2023-04-25T00:15:28;99161.84;;;15.83;26.71
80164;BME280;69489;55.130;61.268;2023-04-25T00:17:57;99154.31;;;16.05;26.71
80164;BME280;69489;55.130;61.268;2023-04-25T00:20:23;99153.16;;;15.94;26.92
80164;BME280;69489;55.130;61.268;2023-04-25T00:22:50;99134.97;;;15.64;26.77
80164;BME280;69489;55.130;61.268;2023-04-25T00:25:18;99138.34;;;15.46;27.17
80164;BME280;69489;55.130;61.268;2023-04-25T00:27:44;99151.91;;;15.45;27.05
80164;BME280;69489;55.130;61.268;2023-04-25T00:30:10;99143.88;;;15.52;26.78
80164;BME280;69489;55.130;61.268;2023-04-25T00:32:36;99166.38;;;15.76;27.05
80164;BME280;69489;55.130;61.268;2023-04-25T00:35:02;99154.38;;;15.46;27.41
80164;BME280;69489;55.130;61.268;2023-04-25T00:37:28;99164.88;;;15.48;27.37
80164;BME280;69489;55.130;61.268;2023-04-25T00:39:56;99167.75;;;15.53;27.37
80164;BME280;69489;55.130;61.268;2023-04-25T00:42:21;99174.06;;;15.59;27.03
80164;BME280;69489;55.130;61.268;2023-04-25T00:44:52;99173.66;;;15.62;26.97
80164;BME280;69489;55.130;61.268;2023-04-25T00:47:18;99177.72;;;15.71;26.55
80164;BME280;69489;55.130;61.268;2023-04-25T00:49:44;99194.81;;;15.70;26.82
80164;BME280;69489;55.130;61.268;2023-04-25T00:52:10;99183.50;;;15.68;27.13
80164;BME280;69489;55.130;61.268;2023-04-25T00:54:36;99183.31;;;15.63;26.99
80164;BME280;69489;55.130;61.268;2023-04-25T00:57:03;99166.06;;;15.59;27.24
80164;BME280;69489;55.130;61.268;2023-04-25T00:59:29;99193.72;;;15.91;27.08
80164;BME280;69489;55.130;61.268;2023-04-25T01:01:56;99190.88;;;15.73;27.10
80164;BME280;69489;55.130;61.268;2023-04-25T01:04:22;99189.44;;;15.77;26.84
80164;BME280;69489;55.130;61.268;2023-04-25T01:06:48;99192.97;;;15.71;27.08
80164;BME280;69489;55.130;61.268;2023-04-25T01:09:15;99177.44;;;15.41;27.75
80164;BME280;69489;55.130;61.268;2023-04-25T01:11:41;99166.34;;;15.37;27.56
80164;BME280;69489;55.130;61.268;2023-04-25T01:14:07;99189.13;;;15.53;27.22
80164;BME280;69489;55.130;61.268;2023-04-25T01:16:33;99203.06;;;15.69;26.90
80164;BME280;69489;55.130;61.268;2023-04-25T01:18:59;99197.94;;;15.60;27.47
80164;BME280;69489;55.130;61.268;2023-04-25T01:21:25;99193.59;;;15.66;27.17
80164;BME280;69489;55.130;61.268;2023-04-25T01:23:54;99205.59;;;15.50;27.88
80164;BME280;69489;55.130;61.268;2023-04-25T01:26:21;99187.88;;;15.62;27.66
80164;BME280;69489;55.130;61.268;2023-04-25T01:29:11;99220.91;;;15.88;27.49
80164;BME280;69489;55.130;61.268;2023-04-25T01:32:18;99181.88;;;15.60;27.29
80164;BME280;69489;55.130;61.268;2023-04-25T01:34:44;99172.66;;;15.56;27.71
80164;BME280;69489;55.130;61.268;2023-04-25T01:37:39;99219.09;;;15.82;27.64
80164;BME280;69489;55.130;61.268;2023-04-25T01:40:07;99199.84;;;15.53;28.00
80164;BME280;69489;55.130;61.268;2023-04-25T01:42:35;99229.16;;;15.80;27.58
80164;BME280;69489;55.130;61.268;2023-04-25T01:45:02;99228.44;;;16.05;27.58
80164;BME280;69489;55.130;61.268;2023-04-25T01:47:29;99198.09;;;15.72;27.52
80164;BME280;69489;55.130;61.268;2023-04-25T01:49:55;99202.47;;;15.60;27.81
80164;BME280;69489;55.130;61.268;2023-04-25T01:52:20;99223.81;;;15.80;27.80
80164;BME280;69489;55.130;61.268;2023-04-25T01:54:47;99235.50;;;15.92;27.73
80164;BME280;69489;55.130;61.268;2023-04-25T01:57:14;99221.78;;;15.69;27.72
80164;BME280;69489;55.130;61.268;2023-04-25T01:59:41;99206.50;;;15.76;27.47
80164;BME280;69489;55.130;61.268;2023-04-25T02:02:07;99241.53;;;15.81;28.15
80164;BME280;69489;55.130;61.268;2023-04-25T02:04:33;99235.75;;;15.84;27.85
80164;BME280;69489;55.130;61.268;2023-04-25T02:06:59;99240.56;;;16.14;27.60
80164;BME280;69489;55.130;61.268;2023-04-25T02:09:25;99240.94;;;16.17;27.47
80164;BME280;69489;55.130;61.268;2023-04-25T02:11:52;99249.28;;;16.34;27.41
80164;BME280;69489;55.130;61.268;2023-04-25T02:14:17;99240.84;;;15.99;27.72
80164;BME280;69489;55.130;61.268;2023-04-25T02:16:43;99251.75;;;15.97;28.08
80164;BME280;69489;55.130;61.268;2023-04-25T02:19:12;99262.94;;;16.20;27.91
80164;BME280;69489;55.130;61.268;2023-04-25T02:21:38;99255.03;;;15.99;28.05
80164;BME280;69489;55.130;61.268;2023-04-25T02:24:04;99246.00;;;16.32;27.53
80164;BME280;69489;55.130;61.268;2023-04-25T02:26:30;99263.88;;;16.70;27.27
80164;BME280;69489;55.130;61.268;2023-04-25T02:28:57;99259.56;;;16.38;27.68
80164;BME280;69489;55.130;61.268;2023-04-25T02:31:23;99240.78;;;16.12;27.94
80164;BME280;69489;55.130;61.268;2023-04-25T02:33:49;99258.59;;;16.25;27.92
80164;BME280;69489;55.130;61.268;2023-04-25T02:36:15;99243.69;;;16.43;27.49
80164;BME280;69489;55.130;61.268;2023-04-25T02:38:41;99248.53;;;16.52;27.38
80164;BME280;69489;55.130;61.268;2023-04-25T02:41:07;99244.66;;;16.48;27.30
80164;BME280;69489;55.130;61.268;2023-04-25T02:43:32;99252.59;;;16.62;27.18
80164;BME280;69489;55.130;61.268;2023-04-25T02:45:58;99237.31;;;16.37;27.67
80164;BME280;69489;55.130;61.268;2023-04-25T02:48:24;99259.31;;;16.71;27.12
80164;BME280;69489;55.130;61.268;2023-04-25T02:50:52;99230.66;;;16.72;26.96
80164;BME280;69489;55.130;61.268;2023-04-25T02:53:18;99259.72;;;16.75;27.00
80164;BME280;69489;55.130;61.268;2023-04-25T02:55:49;99276.56;;;16.82;27.36
80164;BME280;69489;55.130;61.268;2023-04-25T02:58:15;99271.25;;;16.75;27.58
80164;BME280;69489;55.130;61.268;2023-04-25T03:00:41;99287.66;;;16.92;27.37
80164;BME280;69489;55.130;61.268;2023-04-25T03:03:16;99263.88;;;16.70;27.27
80164;BME280;69489;55.130;61.268;2023-04-25T03:05:44;99206.00;;;16.38;27.38
80164;BME280;69489;55.130;61.268;2023-04-25T03:08:10;99231.44;;;16.54;27.00
80164;BME280;69489;55.130;61.268;2023-04-25T03:10:36;99265.41;;;16.85;27.21
80164;BME280;69489;55.130;61.268;2023-04-25T03:13:02;99213.94;;;16.51;27.27
80164;BME280;69489;55.130;61.268;2023-04-25T03:15:28;99270.00;;;17.10;27.09
80164;BME280;69489;55.130;61.268;2023-04-25T03:17:54;99284.09;;;17.23;26.76
80164;BME280;69489;55.130;61.268;2023-04-25T03:20:20;99273.38;;;17.23;26.90
80164;BME280;69489;55.130;61.268;2023-04-25T03:22:48;99253.06;;;17.09;27.25
80164;BME280;69489;55.130;61.268;2023-04-25T03:25:14;99277.06;;;17.48;26.59
80164;BME280;69489;55.130;61.268;2023-04-25T03:27:40;99232.91;;;17.07;27.05
80164;BME280;69489;55.130;61.268;2023-04-25T03:30:06;99275.75;;;17.32;26.94
80164;BME280;69489;55.130;61.268;2023-04-25T03:32:33;99274.97;;;17.68;26.64
80164;BME280;69489;55.130;61.268;2023-04-25T03:35:00;99293.06;;;17.73;26.52
80164;BME280;69489;55.130;61.268;2023-04-25T03:37:26;99249.91;;;17.56;26.30
80164;BME280;69489;55.130;61.268;2023-04-25T03:39:52;99230.25;;;17.44;26.56
80164;BME280;69489;55.130;61.268;2023-04-25T03:42:18;99262.44;;;17.81;26.49
80164;BME280;69489;55.130;61.268;2023-04-25T03:44:46;99255.41;;;17.61;26.38
80164;BME280;69489;55.130;61.268;2023-04-25T03:47:12;99265.19;;;17.74;26.70
80164;BME280;69489;55.130;61.268;2023-04-25T03:49:41;99301.38;;;17.90;26.06
80164;BME280;69489;55.130;61.268;2023-04-25T03:52:07;99304.25;;;18.25;26.54
80164;BME280;69489;55.130;61.268;2023-04-25T03:54:33;99292.66;;;18.13;26.25
80164;BME280;69489;55.130;61.268;2023-04-25T03:56:59;99273.09;;;17.87;26.06
80164;BME280;69489;55.130;61.268;2023-04-25T03:59:25;99273.44;;;17.98;26.05
80164;BME280;69489;55.130;61.268;2023-04-25T04:01:52;99276.69;;;18.00;26.36
80164;BME280;69489;55.130;61.268;2023-04-25T04:04:18;99289.00;;;18.07;26.13
80164;BME280;69489;55.130;61.268;2023-04-25T04:06:44;99287.56;;;18.05;25.85
80164;BME280;69489;55.130;61.268;2023-04-25T04:09:09;99263.97;;;17.88;25.65
80164;BME280;69489;55.130;61.268;2023-04-25T04:11:41;99277.34;;;18.14;25.94
80164;BME280;69489;55.130;61.268;2023-04-25T04:14:07;99241.78;;;18.00;25.76
80164;BME280;69489;55.130;61.268;2023-04-25T04:16:33;99276.56;;;18.25;26.02
80164;BME280;69489;55.130;61.268;2023-04-25T04:18:59;99222.88;;;18.06;25.90
80164;BME280;69489;55.130;61.268;2023-04-25T04:21:25;99259.19;;;18.27;25.89
80164;BME280;69489;55.130;61.268;2023-04-25T04:23:53;99281.69;;;18.57;25.62
80164;BME280;69489;55.130;61.268;2023-04-25T04:26:20;99262.25;;;18.43;25.65
80164;BME280;69489;55.130;61.268;2023-04-25T04:28:52;99259.56;;;18.31;25.58
80164;BME280;69489;55.130;61.268;2023-04-25T04:31:27;99233.34;;;18.26;25.39
80164;BME280;69489;55.130;61.268;2023-04-25T04:33:53;99297.50;;;18.65;25.16
80164;BME280;69489;55.130;61.268;2023-04-25T04:37:26;99270.94;;;18.57;25.18
80164;BME280;69489;55.130;61.268;2023-04-25T04:39:52;99255.28;;;18.54;25.41
80164;BME280;69489;55.130;61.268;2023-04-25T04:43:01;99284.38;;;18.99;25.06
80164;BME280;69489;55.130;61.268;2023-04-25T04:46:12;99282.94;;;18.85;24.83
80164;BME280;69489;55.130;61.268;2023-04-25T04:48:38;99282.50;;;18.88;24.83
80164;BME280;69489;55.130;61.268;2023-04-25T04:51:15;99223.75;;;18.61;25.08
80164;BME280;69489;55.130;61.268;2023-04-25T04:54:06;99292.69;;;19.09;25.18
80164;BME280;69489;55.130;61.268;2023-04-25T04:57:21;99258.19;;;18.94;25.08
80164;BME280;69489;55.130;61.268;2023-04-25T04:59:50;99254.31;;;18.90;24.91
80164;BME280;69489;55.130;61.268;2023-04-25T05:02:28;99254.69;;;18.94;24.75
80164;BME280;69489;55.130;61.268;2023-04-25T05:05:58;99249.88;;;18.96;24.56
80164;BME280;69489;55.130;61.268;2023-04-25T05:09:27;99287.56;;;19.31;24.57
80164;BME280;69489;55.130;61.268;2023-04-25T05:12:34;99255.16;;;19.26;24.50
80164;BME280;69489;55.130;61.268;2023-04-25T05:15:59;99252.47;;;19.26;24.17
80164;BME280;69489;55.130;61.268;2023-04-25T05:18:50;99278.53;;;19.49;24.25
80164;BME280;69489;55.130;61.268;2023-04-25T05:21:24;99255.63;;;19.35;23.96
80164;BME280;69489;55.130;61.268;2023-04-25T05:24:51;99264.41;;;19.54;23.83
80164;BME280;69489;55.130;61.268;2023-04-25T05:28:19;99285.09;;;19.77;23.98
80164;BME280;69489;55.130;61.268;2023-04-25T05:31:27;99254.91;;;19.51;23.37
80164;BME280;69489;55.130;61.268;2023-04-25T05:34:32;99247.88;;;19.62;22.62
80164;BME280;69489;55.130;61.268;2023-04-25T05:37:58;99247.06;;;19.62;23.17
80164;BME280;69489;55.130;61.268;2023-04-25T05:40:47;99255.69;;;19.76;22.90
80164;BME280;69489;55.130;61.268;2023-04-25T08:39:30;99147.72;;;22.61;18.53
80164;BME280;69489;55.130;61.268;2023-04-25T08:41:59;99191.28;;;23.02;18.73
80164;BME280;69489;55.130;61.268;2023-04-25T08:44:32;99205.59;;;22.98;18.46
80164;BME280;69489;55.130;61.268;2023-04-25T08:46:59;99142.06;;;22.63;18.49
80164;BME280;69489;55.130;61.268;2023-04-25T08:49:26;99153.31;;;22.87;18.99
80164;BME280;69489;55.130;61.268;2023-04-25T08:52:00;99150.06;;;22.90;18.45
80164;BME280;69489;55.130;61.268;2023-04-25T08:54:27;99152.88;;;23.05;18.51
80164;BME280;69489;55.130;61.268;2023-04-25T08:56:54;99169.78;;;23.28;17.66
80164;BME280;69489;55.130;61.268;2023-04-25T08:59:25;99173.03;;;23.30;17.70
80164;BME280;69489;55.130;61.268;2023-04-25T09:01:52;99199.84;;;23.32;17.54
80164;BME280;69489;55.130;61.268;2023-04-25T09:04:18;99190.19;;;23.46;17.49
80164;BME280;69489;55.130;61.268;2023-04-25T09:06:46;99190.47;;;23.55;17.30
80164;BME280;69489;55.130;61.268;2023-04-25T09:09:12;99164.19;;;23.45;17.49
80164;BME280;69489;55.130;61.268;2023-04-25T09:11:39;99186.16;;;23.59;17.20
80164;BME280;69489;55.130;61.268;2023-04-25T09:14:12;99170.78;;;23.80;16.72
80164;BME280;69489;55.130;61.268;2023-04-25T09:16:58;99161.63;;;23.86;17.30
80164;BME280;69489;55.130;61.268;2023-04-25T09:19:52;99157.28;;;23.95;17.28
80164;BME280;69489;55.130;61.268;2023-04-25T09:22:21;99162.22;;;24.19;17.39
80164;BME280;69489;55.130;61.268;2023-04-25T09:24:48;99171.72;;;24.27;18.15
80164;BME280;69489;55.130;61.268;2023-04-25T09:27:23;99169.28;;;24.25;16.50
80164;BME280;69489;55.130;61.268;2023-04-25T09:30:01;99138.91;;;24.28;17.13
80164;BME280;69489;55.130;61.268;2023-04-25T09:32:29;99142.94;;;24.41;16.70
80164;BME280;69489;55.130;61.268;2023-04-25T09:35:01;99124.25;;;24.50;16.50
80164;BME280;69489;55.130;61.268;2023-04-25T09:37:31;99132.09;;;24.67;16.14
80164;BME280;69489;55.130;61.268;2023-04-25T09:39:58;99162.19;;;24.96;16.19
80164;BME280;69489;55.130;61.268;2023-04-25T09:42:27;99118.25;;;24.79;15.96
80164;BME280;69489;55.130;61.268;2023-04-25T09:44:58;99144.50;;;25.14;15.91
80164;BME280;69489;55.130;61.268;2023-04-25T09:47:25;99144.47;;;25.30;15.42
80164;BME280;69489;55.130;61.268;2023-04-25T09:49:53;99157.38;;;25.53;15.27
80164;BME280;69489;55.130;61.268;2023-04-25T09:52:23;99123.38;;;25.61;15.63
80164;BME280;69489;55.130;61.268;2023-04-25T09:54:50;99153.72;;;25.79;15.01
80164;BME280;69489;55.130;61.268;2023-04-25T09:57:22;99135.13;;;26.01;15.54
80164;BME280;69489;55.130;61.268;2023-04-25T09:59:52;99122.13;;;26.28;14.63
80164;BME280;69489;55.130;61.268;2023-04-25T10:02:29;99118.06;;;26.30;14.36
80164;BME280;69489;55.130;61.268;2023-04-25T10:04:56;99137.59;;;26.32;14.40
80164;BME280;69489;55.130;61.268;2023-04-25T10:07:29;99129.69;;;26.65;14.24
80164;BME280;69489;55.130;61.268;2023-04-25T10:10:01;99128.63;;;26.66;14.46
80164;BME280;69489;55.130;61.268;2023-04-25T10:12:50;99097.84;;;26.71;14.44
80164;BME280;69489;55.130;61.268;2023-04-25T10:15:16;99134.34;;;27.18;14.96
80164;BME280;69489;55.130;61.268;2023-04-25T10:17:42;99103.53;;;27.18;14.93
80164;BME280;69489;55.130;61.268;2023-04-25T10:20:09;99095.44;;;27.37;14.02
80164;BME280;69489;55.130;61.268;2023-04-25T10:22:39;99126.16;;;27.61;13.73
80164;BME280;69489;55.130;61.268;2023-04-25T10:25:07;99133.91;;;27.73;13.65
80164;BME280;69489;55.130;61.268;2023-04-25T10:27:34;99114.88;;;27.87;13.59
80164;BME280;69489;55.130;61.268;2023-04-25T10:30:09;99113.41;;;28.14;13.45
80164;BME280;69489;55.130;61.268;2023-04-25T10:32:36;99105.16;;;28.33;13.63
80164;BME280;69489;55.130;61.268;2023-04-25T10:35:15;99136.09;;;28.61;13.43
80164;BME280;69489;55.130;61.268;2023-04-25T10:40:26;99125.09;;;28.80;12.32
80164;BME280;69489;55.130;61.268;2023-04-25T10:42:53;99123.91;;;29.00;12.21
80164;BME280;69489;55.130;61.268;2023-04-25T10:45:22;99123.00;;;29.05;12.63
80164;BME280;69489;55.130;61.268;2023-04-25T10:47:48;99131.41;;;29.22;12.22
80164;BME280;69489;55.130;61.268;2023-04-25T10:50:15;99131.09;;;29.38;12.11
80164;BME280;69489;55.130;61.268;2023-04-25T10:52:44;99120.41;;;29.64;11.83
80164;BME280;69489;55.130;61.268;2023-04-25T10:55:10;99107.78;;;29.91;12.18
80164;BME280;69489;55.130;61.268;2023-04-25T10:57:41;99102.84;;;30.16;11.97
80164;BME280;69489;55.130;61.268;2023-04-25T11:00:17;99108.00;;;30.40;11.49
80164;BME280;69489;55.130;61.268;2023-04-25T11:02:58;99105.06;;;30.68;11.93
80164;BME280;69489;55.130;61.268;2023-04-25T11:12:47;99110.38;;;31.62;11.33
80164;BME280;69489;55.130;61.268;2023-04-25T11:15:13;99117.63;;;31.84;11.25
80164;BME280;69489;55.130;61.268;2023-04-25T11:17:39;99082.44;;;31.95;11.41
80164;BME280;69489;55.130;61.268;2023-04-25T11:20:07;99091.97;;;32.15;10.57
80164;BME280;69489;55.130;61.268;2023-04-25T11:22:38;99123.88;;;32.37;11.00
80164;BME280;69489;55.130;61.268;2023-04-25T11:25:10;99104.75;;;32.58;11.00
80164;BME280;69489;55.130;61.268;2023-04-25T11:27:58;99098.72;;;32.82;10.39
80164;BME280;69489;55.130;61.268;2023-04-25T11:30:26;99105.56;;;33.06;9.82
80164;BME280;69489;55.130;61.268;2023-04-25T11:32:58;99101.59;;;33.24;10.32
80164;BME280;69489;55.130;61.268;2023-04-25T11:35:25;99095.56;;;33.52;9.92
80164;BME280;69489;55.130;61.268;2023-04-25T11:37:51;99108.59;;;33.64;9.85
80164;BME280;69489;55.130;61.268;2023-04-25T11:40:18;99096.66;;;33.81;10.23
80164;BME280;69489;55.130;61.268;2023-04-25T11:42:46;99099.78;;;34.13;10.50
80164;BME280;69489;55.130;61.268;2023-04-25T11:45:12;99097.78;;;34.34;9.58
80164;BME280;69489;55.130;61.268;2023-04-25T11:47:39;99105.09;;;34.64;9.68
80164;BME280;69489;55.130;61.268;2023-04-25T11:50:07;99078.81;;;34.91;9.94
80164;BME280;69489;55.130;61.268;2023-04-25T11:52:44;99083.53;;;35.15;9.65
80164;BME280;69489;55.130;61.268;2023-04-25T11:55:16;99090.63;;;35.41;9.08
80164;BME280;69489;55.130;61.268;2023-04-25T11:57:43;99078.06;;;35.44;8.67
80164;BME280;69489;55.130;61.268;2023-04-25T12:00:20;99104.00;;;35.67;9.05
80164;BME280;69489;55.130;61.268;2023-04-25T12:02:51;99099.88;;;35.61;8.68
80164;BME280;69489;55.130;61.268;2023-04-25T12:05:17;99096.06;;;35.78;8.63
80164;BME280;69489;55.130;61.268;2023-04-25T12:07:45;99078.03;;;35.97;9.05
80164;BME280;69489;55.130;61.268;2023-04-25T12:10:13;99090.47;;;36.19;8.78
80164;BME280;69489;55.130;61.268;2023-04-25T12:12:47;99083.47;;;36.37;8.41
80164;BME280;69489;55.130;61.268;2023-04-25T12:15:18;99069.47;;;36.62;8.96
80164;BME280;69489;55.130;61.268;2023-04-25T12:17:50;99086.16;;;36.97;8.62
80164;BME280;69489;55.130;61.268;2023-04-25T12:20:21;99095.19;;;37.30;8.00
80164;BME280;69489;55.130;61.268;2023-04-25T12:22:52;99054.44;;;37.46;8.12
80164;BME280;69489;55.130;61.268;2023-04-25T12:25:40;99081.91;;;37.94;8.16
80164;BME280;69489;55.130;61.268;2023-04-25T12:31:19;99081.09;;;38.60;8.26
80164;BME280;69489;55.130;61.268;2023-04-25T12:33:45;99078.50;;;38.94;7.89
80164;BME280;69489;55.130;61.268;2023-04-25T12:36:13;99073.72;;;39.17;7.44
80164;BME280;69489;55.130;61.268;2023-04-25T12:38:40;99059.78;;;39.44;7.28
80164;BME280;69489;55.130;61.268;2023-04-25T12:41:07;99081.53;;;39.69;7.34
80164;BME280;69489;55.130;61.268;2023-04-25T12:43:33;99074.81;;;40.04;6.70
80164;BME280;69489;55.130;61.268;2023-04-25T12:45:59;99044.13;;;39.96;7.13
80164;BME280;69489;55.130;61.268;2023-04-25T12:48:25;99052.38;;;40.23;6.89
80164;BME280;69489;55.130;61.268;2023-04-25T12:50:51;99062.66;;;40.60;6.52
80164;BME280;69489;55.130;61.268;2023-04-25T12:53:23;99062.75;;;40.75;6.25
80164;BME280;69489;55.130;61.268;2023-04-25T12:55:52;99049.63;;;40.75;6.75
80164;BME280;69489;55.130;61.268;2023-04-25T12:58:18;99033.84;;;40.90;6.25
80164;BME280;69489;55.130;61.268;2023-04-25T13:00:45;99047.88;;;41.12;6.25
80164;BME280;69489;55.130;61.268;2023-04-25T13:03:11;99056.31;;;41.30;6.47
80164;BME280;69489;55.130;61.268;2023-04-25T13:05:43;99061.63;;;41.53;5.97
80164;BME280;69489;55.130;61.268;2023-04-25T13:08:09;99046.50;;;41.50;5.92
80164;BME280;69489;55.130;61.268;2023-04-25T13:10:59;99046.53;;;41.65;6.24
80164;BME280;69489;55.130;61.268;2023-04-25T13:13:25;99049.81;;;41.81;5.68
80164;BME280;69489;55.130;61.268;2023-04-25T13:16:06;99057.03;;;42.00;5.80
80164;BME280;69489;55.130;61.268;2023-04-25T13:18:33;99057.81;;;42.12;5.84
80164;BME280;69489;55.130;61.268;2023-04-25T13:21:21;99062.59;;;42.04;5.88
80164;BME280;69489;55.130;61.268;2023-04-25T13:23:49;99041.03;;;41.76;5.69
80164;BME280;69489;55.130;61.268;2023-04-25T13:26:25;99051.44;;;41.89;5.65
80164;BME280;69489;55.130;61.268;2023-04-25T13:28:52;99058.94;;;41.82;5.68
80164;BME280;69489;55.130;61.268;2023-04-25T13:31:18;99032.59;;;41.58;5.87
80164;BME280;69489;55.130;61.268;2023-04-25T13:33:44;99049.28;;;41.54;5.53
80164;BME280;69489;55.130;61.268;2023-04-25T13:36:10;99036.97;;;41.55;6.13
80164;BME280;69489;55.130;61.268;2023-04-25T13:38:36;99031.44;;;41.62;6.26
80164;BME280;69489;55.130;61.268;2023-04-25T13:41:24;99027.47;;;41.70;6.09
80164;BME280;69489;55.130;61.268;2023-04-25T13:44:20;99046.63;;;41.94;6.01
80164;BME280;69489;55.130;61.268;2023-04-25T13:46:51;99051.84;;;41.99;5.75
80164;BME280;69489;55.130;61.268;2023-04-25T13:49:18;99034.72;;;42.00;6.15
80164;BME280;69489;55.130;61.268;2023-04-25T13:51:45;99038.69;;;42.03;5.87
80164;BME280;69489;55.130;61.268;2023-04-25T13:54:11;99026.75;;;41.99;5.85
80164;BME280;69489;55.130;61.268;2023-04-25T13:56:37;99013.19;;;41.79;5.79
80164;BME280;69489;55.130;61.268;2023-04-25T13:59:04;99028.28;;;41.82;6.07
80164;BME280;69489;55.130;61.268;2023-04-25T14:01:50;99012.66;;;41.48;5.89
80164;BME280;69489;55.130;61.268;2023-04-25T14:04:23;99035.41;;;41.61;5.57
80164;BME280;69489;55.130;61.268;2023-04-25T14:06:51;99038.06;;;41.36;6.63
80164;BME280;69489;55.130;61.268;2023-04-25T14:09:18;99024.88;;;41.22;6.46
80164;BME280;69489;55.130;61.268;2023-04-25T14:11:45;99002.91;;;41.02;6.53
80164;BME280;69489;55.130;61.268;2023-04-25T14:14:11;99000.50;;;40.97;6.86
80164;BME280;69489;55.130;61.268;2023-04-25T14:16:38;98994.81;;;40.83;6.50
80164;BME280;69489;55.130;61.268;2023-04-25T14:19:08;98997.69;;;40.90;6.50
80164;BME280;69489;55.130;61.268;2023-04-25T14:21:35;99028.34;;;41.01;6.48
80164;BME280;69489;55.130;61.268;2023-04-25T14:24:01;99017.94;;;40.87;6.71
80164;BME280;69489;55.130;61.268;2023-04-25T14:26:27;99016.59;;;40.66;6.47
80164;BME280;69489;55.130;61.268;2023-04-25T14:28:56;99013.31;;;40.50;6.46
80164;BME280;69489;55.130;61.268;2023-04-25T14:31:23;98994.78;;;40.24;6.39
80164;BME280;69489;55.130;61.268;2023-04-25T14:33:48;98985.38;;;39.98;6.81
80164;BME280;69489;55.130;61.268;2023-04-25T14:36:18;98996.28;;;39.73;7.01
80164;BME280;69489;55.130;61.268;2023-04-25T14:39:05;99008.66;;;39.45;6.60
80164;BME280;69489;55.130;61.268;2023-04-25T14:41:32;99009.09;;;38.90;7.18
80164;BME280;69489;55.130;61.268;2023-04-25T15:20:23;99014.44;;;32.56;9.80
80164;BME280;69489;55.130;61.268;2023-04-25T15:22:50;99022.94;;;32.34;10.34
80164;BME280;69489;55.130;61.268;2023-04-25T15:25:28;99041.09;;;32.09;9.97
80164;BME280;69489;55.130;61.268;2023-04-25T15:27:54;99008.88;;;31.62;10.49
80164;BME280;69489;55.130;61.268;2023-04-25T15:30:21;99015.81;;;31.42;10.35
80164;BME280;69489;55.130;61.268;2023-04-25T15:32:49;98996.28;;;31.08;10.45
80164;BME280;69489;55.130;61.268;2023-04-25T15:35:15;98992.97;;;30.89;10.49
80164;BME280;69489;55.130;61.268;2023-04-25T15:37:42;99010.00;;;30.68;10.84
80164;BME280;69489;55.130;61.268;2023-04-25T15:40:15;99022.66;;;30.46;10.86
80164;BME280;69489;55.130;61.268;2023-04-25T15:42:42;99028.97;;;30.24;11.17
80164;BME280;69489;55.130;61.268;2023-04-25T15:45:10;99023.03;;;30.00;11.37
80164;BME280;69489;55.130;61.268;2023-04-25T15:47:37;99030.38;;;29.90;11.18
80164;BME280;69489;55.130;61.268;2023-04-25T15:50:05;99034.47;;;29.79;11.97
80164;BME280;69489;55.130;61.268;2023-04-25T15:52:32;99033.25;;;29.71;11.72
80164;BME280;69489;55.130;61.268;2023-04-25T15:54:59;99041.13;;;29.64;12.18
80164;BME280;69489;55.130;61.268;2023-04-25T15:57:36;99042.47;;;29.53;12.17
80164;BME280;69489;55.130;61.268;2023-04-25T16:00:14;99048.00;;;29.25;12.12
80164;BME280;69489;55.130;61.268;2023-04-25T16:02:59;99014.88;;;28.76;12.91
